sensor_id;sensor_type;location;lat;lon;timestamp;pressure;altitude;pressure_sealevel;temperature;humidity
27294;BME280;14785;52.556;13.430;2023-05-08T00:00:30;101849.16;;;11.43;100.00
27294;BME280;14785;52.556;13.430;2023-05-08T00:02:56;101838.25;;;11.16;100.00
27294;BME280;14785;52.556;13.430;2023-05-08T00:05:21;101832.78;;;10.97;100.00
27294;BME280;14785;52.556;13.430;2023-05-08T00:07:47;101839.81;;;11.49;100.00
27294;BME280;14785;52.556;13.430;2023-05-08T00:10:14;101828.25;;;11.39;100.00
27294;BME280;14785;52.556;13.430;2023-05-08T00:12:39;101829.09;;;11.39;100.00
27294;BME280;14785;52.556;13.430;2023-05-08T00:15:05;101829.56;;;11.44;100.00
27294;BME280;14785;52.556;13.430;2023-05-08T00:17:31;101826.63;;;11.47;100.00
27294;BME280;14785;52.556;13.430;2023-05-08T00:19:57;101828.69;;;11.14;100.00
27294;BME280;14785;52.556;13.430;2023-05-08T00:22:22;101827.44;;;11.38;100.00
27294;BME280;14785;52.556;13.430;2023-05-08T00:24:47;101829.41;;;11.46;100.00
27294;BME280;14785;52.556;13.430;2023-05-08T00:27:13;101830.50;;;10.93;100.00
27294;BME280;14785;52.556;13.430;2023-05-08T00:29:38;101836.44;;;10.96;100.00
27294;BME280;14785;52.556;13.430;2023-05-08T00:32:07;101837.47;;;11.25;100.00
27294;BME280;14785;52.556;13.430;2023-05-08T00:34:33;101839.88;;;11.28;100.00
27294;BME280;14785;52.556;13.430;2023-05-08T00:36:58;101833.97;;;11.04;100.00
27294;BME280;14785;52.556;13.430;2023-05-08T00:39:24;101844.00;;;11.21;100.00
27294;BME280;14785;52.556;13.430;2023-05-08T00:41:49;101836.44;;;10.96;100.00
27294;BME280;14785;52.556;13.430;2023-05-08T00:44:15;101843.19;;;11.00;100.00
27294;BME280;14785;52.556;13.430;2023-05-08T00:46:41;101850.00;;;10.41;100.00
27294;BME280;14785;52.556;13.430;2023-05-08T00:49:07;101856.41;;;10.70;100.00
27294;BME280;14785;52.556;13.430;2023-05-08T00:51:37;101854.34;;;10.94;100.00
27294;BME280;14785;52.556;13.430;2023-05-08T00:54:03;101850.91;;;10.62;100.00
27294;BME280;14785;52.556;13.430;2023-05-08T00:56:29;101849.25;;;10.50;100.00
27294;BME280;14785;52.556;13.430;2023-05-08T00:58:56;101855.50;;;10.60;100.00
27294;BME280;14785;52.556;13.430;2023-05-08T01:01:24;101855.38;;;10.82;100.00
27294;BME280;14785;52.556;13.430;2023-05-08T01:03:49;101850.78;;;10.64;100.00
27294;BME280;14785;52.556;13.430;2023-05-08T01:06:15;101856.81;;;10.86;100.00
27294;BME280;14785;52.556;13.430;2023-05-08T01:08:43;101854.22;;;10.96;100.00
27294;BME280;14785;52.556;13.430;2023-05-08T01:11:22;101856.41;;;10.70;100.00
27294;BME280;14785;52.556;13.430;2023-05-08T01:16:26;101856.34;;;10.81;100.00
27294;BME280;14785;52.556;13.430;2023-05-08T01:19:25;101855.22;;;10.63;100.00
27294;BME280;14785;52.556;13.430;2023-05-08T01:24:55;101859.13;;;10.59;100.00
27294;BME280;14785;52.556;13.430;2023-05-08T01:30:43;101859.25;;;10.15;100.00
27294;BME280;14785;52.556;13.430;2023-05-08T01:36:01;101865.25;;;10.28;100.00
27294;BME280;14785;52.556;13.430;2023-05-08T01:41:25;101862.66;;;10.80;100.00
27294;BME280;14785;52.556;13.430;2023-05-08T01:44:01;101858.88;;;10.62;100.00
27294;BME280;14785;52.556;13.430;2023-05-08T01:46:32;101861.81;;;10.48;100.00
27294;BME280;14785;52.556;13.430;2023-05-08T01:49:04;101859.25;;;10.15;100.00
27294;BME280;14785;52.556;13.430;2023-05-08T01:51:39;101862.66;;;10.17;100.00
27294;BME280;14785;52.556;13.430;2023-05-08T01:54:08;101865.66;;;10.02;100.00
27294;BME280;14785;52.556;13.430;2023-05-08T01:56:36;101867.50;;;10.01;100.00
27294;BME280;14785;52.556;13.430;2023-05-08T01:59:04;101877.63;;;10.18;100.00
27294;BME280;14785;52.556;13.430;2023-05-08T02:01:32;101875.06;;;10.28;100.00
27294;BME280;14785;52.556;13.430;2023-05-08T02:03:59;101873.81;;;10.43;100.00
27294;BME280;14785;52.556;13.430;2023-05-08T02:06:26;101876.06;;;10.16;100.00
27294;BME280;14785;52.556;13.430;2023-05-08T02:08:53;101871.13;;;10.22;100.00
27294;BME280;14785;52.556;13.430;2023-05-08T02:11:21;101876.38;;;10.33;100.00
27294;BME280;14785;52.556;13.430;2023-05-08T02:13:49;101877.75;;;10.59;100.00
27294;BME280;14785;52.556;13.430;2023-05-08T02:16:16;101875.91;;;10.28;100.00
27294;BME280;14785;52.556;13.430;2023-05-08T02:18:48;101876.00;;;10.69;100.00
27294;BME280;14785;52.556;13.430;2023-05-08T02:21:14;101869.19;;;10.76;100.00
27294;BME280;14785;52.556;13.430;2023-05-08T02:23:41;101873.13;;;10.61;100.00
27294;BME280;14785;52.556;13.430;2023-05-08T02:26:08;101867.16;;;10.37;100.00
27294;BME280;14785;52.556;13.430;2023-05-08T02:28:35;101868.81;;;10.49;100.00
27294;BME280;14785;52.556;13.430;2023-05-08T02:31:01;101874.72;;;10.21;100.00
27294;BME280;14785;52.556;13.430;2023-05-08T02:33:27;101868.34;;;9.91;100.00
27294;BME280;14785;52.556;13.430;2023-05-08T02:35:54;101869.22;;;9.80;100.00
27294;BME280;14785;52.556;13.430;2023-05-08T02:38:22;101865.81;;;10.11;100.00
27294;BME280;14785;52.556;13.430;2023-05-08T02:40:53;101867.75;;;9.87;100.00
27294;BME280;14785;52.556;13.430;2023-05-08T02:43:20;101856.88;;;10.01;100.00
27294;BME280;14785;52.556;13.430;2023-05-08T02:45:53;101862.19;;;9.46;100.00
27294;BME280;14785;52.556;13.430;2023-05-08T02:53:47;101856.28;;;9.76;100.00
27294;BME280;14785;52.556;13.430;2023-05-08T02:56:31;101865.09;;;9.65;100.00
27294;BME280;14785;52.556;13.430;2023-05-08T02:59:12;101859.06;;;9.74;100.00
27294;BME280;14785;52.556;13.430;2023-05-08T03:01:44;101860.50;;;9.78;100.00
27294;BME280;14785;52.556;13.430;2023-05-08T03:04:21;101866.91;;;9.53;100.00
27294;BME280;14785;52.556;13.430;2023-05-08T03:06:48;101869.44;;;9.66;100.00
27294;BME280;14785;52.556;13.430;2023-05-08T03:09:18;101870.88;;;9.37;100.00
27294;BME280;14785;52.556;13.430;2023-05-08T03:11:47;101865.47;;;9.60;100.00
27294;BME280;14785;52.556;13.430;2023-05-08T03:14:18;101878.84;;;9.70;100.00
27294;BME280;14785;52.556;13.430;2023-05-08T03:16:46;101870.41;;;9.65;100.00
27294;BME280;14785;52.556;13.430;2023-05-08T03:19:27;101865.69;;;9.68;100.00
27294;BME280;14785;52.556;13.430;2023-05-08T03:21:56;101874.53;;;9.69;100.00
27294;BME280;14785;52.556;13.430;2023-05-08T03:24:23;101861.72;;;9.41;100.00
27294;BME280;14785;52.556;13.430;2023-05-08T03:26:50;101870.78;;;9.60;100.00
27294;BME280;14785;52.556;13.430;2023-05-08T03:29:17;101866.03;;;9.20;100.00
27294;BME280;14785;52.556;13.430;2023-05-08T03:31:43;101864.25;;;9.20;100.00
27294;BME280;14785;52.556;13.430;2023-05-08T03:34:11;101864.88;;;9.68;100.00
27294;BME280;14785;52.556;13.430;2023-05-08T03:36:38;101861.31;;;9.12;100.00
27294;BME280;14785;52.556;13.430;2023-05-08T03:39:03;101857.09;;;9.10;100.00
27294;BME280;14785;52.556;13.430;2023-05-08T03:41:29;101858.22;;;8.84;100.00
27294;BME280;14785;52.556;13.430;2023-05-08T03:43:56;101864.94;;;9.11;100.00
27294;BME280;14785;52.556;13.430;2023-05-08T03:46:22;101854.47;;;9.32;100.00
27294;BME280;14785;52.556;13.430;2023-05-08T03:48:48;101863.22;;;9.10;100.00
27294;BME280;14785;52.556;13.430;2023-05-08T03:51:14;101871.88;;;9.47;100.00
27294;BME280;14785;52.556;13.430;2023-05-08T03:53:40;101871.16;;;9.56;100.00
27294;BME280;14785;52.556;13.430;2023-05-08T03:56:06;101872.94;;;9.89;100.00
27294;BME280;14785;52.556;13.430;2023-05-08T03:58:45;101875.34;;;9.81;100.00
27294;BME280;14785;52.556;13.430;2023-05-08T04:03:58;101871.72;;;9.37;100.00
27294;BME280;14785;52.556;13.430;2023-05-08T04:06:39;101889.72;;;9.67;100.00
27294;BME280;14785;52.556;13.430;2023-05-08T04:11:46;101883.22;;;9.60;100.00
27294;BME280;14785;52.556;13.430;2023-05-08T04:14:15;101883.31;;;9.47;100.00
27294;BME280;14785;52.556;13.430;2023-05-08T04:16:47;101894.31;;;9.76;100.00
27294;BME280;14785;52.556;13.430;2023-05-08T04:19:22;101891.66;;;10.09;100.00
27294;BME280;14785;52.556;13.430;2023-05-08T04:21:49;101894.31;;;10.20;100.00
27294;BME280;14785;52.556;13.430;2023-05-08T04:24:16;101893.84;;;10.04;100.00
27294;BME280;14785;52.556;13.430;2023-05-08T04:26:42;101893.59;;;9.74;100.00
27294;BME280;14785;52.556;13.430;2023-05-08T04:29:08;101898.06;;;9.85;100.00
27294;BME280;14785;52.556;13.430;2023-05-08T04:31:36;101889.97;;;9.64;100.00
27294;BME280;14785;52.556;13.430;2023-05-08T04:34:02;101892.13;;;9.48;100.00
27294;BME280;14785;52.556;13.430;2023-05-08T04:36:30;101892.38;;;9.67;100.00
27294;BME280;14785;52.556;13.430;2023-05-08T04:38:56;101894.56;;;9.62;100.00
27294;BME280;14785;52.556;13.430;2023-05-08T04:41:21;101898.66;;;9.66;100.00
27294;BME280;14785;52.556;13.430;2023-05-08T04:43:48;101897.94;;;9.64;100.00
27294;BME280;14785;52.556;13.430;2023-05-08T04:46:13;101907.63;;;10.09;100.00
27294;BME280;14785;52.556;13.430;2023-05-08T04:48:39;101914.38;;;10.02;100.00
27294;BME280;14785;52.556;13.430;2023-05-08T04:51:04;101911.59;;;10.04;100.00
27294;BME280;14785;52.556;13.430;2023-05-08T04:53:30;101914.63;;;9.77;100.00
27294;BME280;14785;52.556;13.430;2023-05-08T04:55:55;101922.56;;;9.44;100.00
27294;BME280;14785;52.556;13.430;2023-05-08T04:58:22;101914.34;;;9.47;100.00
27294;BME280;14785;52.556;13.430;2023-05-08T05:00:48;101931.53;;;9.87;100.00
27294;BME280;14785;52.556;13.430;2023-05-08T05:03:13;101931.03;;;10.04;100.00
27294;BME280;14785;52.556;13.430;2023-05-08T05:05:39;101932.50;;;9.86;100.00
27294;BME280;14785;52.556;13.430;2023-05-08T05:08:04;101926.22;;;9.65;100.00
27294;BME280;14785;52.556;13.430;2023-05-08T05:10:30;101926.47;;;9.95;100.00
27294;BME280;14785;52.556;13.430;2023-05-08T05:12:55;101924.75;;;9.61;100.00
27294;BME280;14785;52.556;13.430;2023-05-08T05:15:20;101934.69;;;9.92;100.00
27294;BME280;14785;52.556;13.430;2023-05-08T05:17:46;101935.63;;;9.69;100.00
27294;BME280;14785;52.556;13.430;2023-05-08T05:20:12;101940.81;;;9.93;100.00
27294;BME280;14785;52.556;13.430;2023-05-08T05:22:37;101951.69;;;10.01;100.00
27294;BME280;14785;52.556;13.430;2023-05-08T05:25:03;101944.69;;;10.00;100.00
27294;BME280;14785;52.556;13.430;2023-05-08T05:27:29;101940.75;;;10.16;100.00
27294;BME280;14785;52.556;13.430;2023-05-08T05:29:56;101948.97;;;10.13;100.00
27294;BME280;14785;52.556;13.430;2023-05-08T05:32:21;101944.81;;;10.09;100.00
27294;BME280;14785;52.556;13.430;2023-05-08T05:34:47;101948.06;;;10.46;100.00
27294;BME280;14785;52.556;13.430;2023-05-08T05:37:12;101961.16;;;10.16;100.00
27294;BME280;14785;52.556;13.430;2023-05-08T05:39:37;101951.59;;;10.35;100.00
27294;BME280;14785;52.556;13.430;2023-05-08T05:42:03;101960.53;;;10.12;100.00
27294;BME280;14785;52.556;13.430;2023-05-08T05:44:28;101961.53;;;10.22;100.00
27294;BME280;14785;52.556;13.430;2023-05-08T05:46:54;101960.25;;;10.37;100.00
27294;BME280;14785;52.556;13.430;2023-05-08T05:49:19;101958.13;;;10.20;100.00
27294;BME280;14785;52.556;13.430;2023-05-08T05:51:45;101963.66;;;10.50;100.00
27294;BME280;14785;52.556;13.430;2023-05-08T05:54:10;101955.16;;;10.56;100.00
27294;BME280;14785;52.556;13.430;2023-05-08T05:56:35;101957.84;;;10.45;100.00
27294;BME280;14785;52.556;13.430;2023-05-08T05:59:01;101972.06;;;10.66;100.00
27294;BME280;14785;52.556;13.430;2023-05-08T06:01:27;101964.03;;;10.35;100.00
27294;BME280;14785;52.556;13.430;2023-05-08T06:03:53;101972.84;;;10.35;100.00
27294;BME280;14785;52.556;13.430;2023-05-08T06:06:19;101970.13;;;10.68;100.00
27294;BME280;14785;52.556;13.430;2023-05-08T06:08:44;101967.16;;;10.82;100.00
27294;BME280;14785;52.556;13.430;2023-05-08T06:11:10;101965.22;;;10.84;100.00
27294;BME280;14785;52.556;13.430;2023-05-08T06:13:38;101969.88;;;10.71;100.00
27294;BME280;14785;52.556;13.430;2023-05-08T06:16:04;101967.09;;;11.04;100.00
27294;BME280;14785;52.556;13.430;2023-05-08T06:18:30;101967.44;;;11.31;100.00
27294;BME280;14785;52.556;13.430;2023-05-08T06:20:56;101961.78;;;11.45;100.00
27294;BME280;14785;52.556;13.430;2023-05-08T06:23:22;101965.59;;;10.91;100.00
27294;BME280;14785;52.556;13.430;2023-05-08T06:25:47;101959.63;;;11.19;100.00
27294;BME280;14785;52.556;13.430;2023-05-08T06:28:13;101959.44;;;11.31;100.00
27294;BME280;14785;52.556;13.430;2023-05-08T06:30:39;101964.25;;;11.37;100.00
27294;BME280;14785;52.556;13.430;2023-05-08T06:33:04;101968.75;;;11.37;100.00
27294;BME280;14785;52.556;13.430;2023-05-08T06:35:30;101967.84;;;11.27;100.00
27294;BME280;14785;52.556;13.430;2023-05-08T06:37:55;101967.63;;;11.39;100.00
27294;BME280;14785;52.556;13.430;2023-05-08T06:40:21;101969.19;;;11.42;100.00
27294;BME280;14785;52.556;13.430;2023-05-08T06:42:47;101967.00;;;11.26;100.00
27294;BME280;14785;52.556;13.430;2023-05-08T06:45:13;101964.97;;;10.87;100.00
27294;BME280;14785;52.556;13.430;2023-05-08T06:47:38;101962.78;;;10.92;100.00
27294;BME280;14785;52.556;13.430;2023-05-08T06:50:04;101977.00;;;11.54;100.00
27294;BME280;14785;52.556;13.430;2023-05-08T06:52:30;101965.81;;;11.40;100.00
27294;BME280;14785;52.556;13.430;2023-05-08T06:54:55;101965.91;;;11.70;100.00
27294;BME280;14785;52.556;13.430;2023-05-08T06:57:21;101967.88;;;11.57;100.00
27294;BME280;14785;52.556;13.430;2023-05-08T06:59:48;101966.59;;;11.72;100.00
27294;BME280;14785;52.556;13.430;2023-05-08T07:02:13;101962.31;;;11.81;100.00
27294;BME280;14785;52.556;13.430;2023-05-08T07:04:40;101966.59;;;11.93;100.00
27294;BME280;14785;52.556;13.430;2023-05-08T07:07:05;101966.09;;;12.48;100.00
27294;BME280;14785;52.556;13.430;2023-05-08T07:09:32;101965.84;;;12.21;100.00
27294;BME280;14785;52.556;13.430;2023-05-08T07:11:57;101965.22;;;12.47;100.00
27294;BME280;14785;52.556;13.430;2023-05-08T07:14:22;101958.31;;;11.66;100.00
27294;BME280;14785;52.556;13.430;2023-05-08T07:16:48;101961.81;;;11.96;100.00
27294;BME280;14785;52.556;13.430;2023-05-08T07:19:13;101961.25;;;11.93;100.00
27294;BME280;14785;52.556;13.430;2023-05-08T07:21:39;101952.88;;;12.07;100.00
27294;BME280;14785;52.556;13.430;2023-05-08T07:24:04;101959.38;;;12.14;100.00
27294;BME280;14785;52.556;13.430;2023-05-08T07:26:30;101965.69;;;12.13;100.00
27294;BME280;14785;52.556;13.430;2023-05-08T07:28:57;101958.66;;;12.61;100.00
27294;BME280;14785;52.556;13.430;2023-05-08T07:31:22;101957.91;;;12.00;100.00
27294;BME280;14785;52.556;13.430;2023-05-08T07:33:48;101969.78;;;12.17;100.00
27294;BME280;14785;52.556;13.430;2023-05-08T07:36:13;101966.31;;;12.26;100.00
27294;BME280;14785;52.556;13.430;2023-05-08T07:38:38;101972.38;;;12.47;100.00
27294;BME280;14785;52.556;13.430;2023-05-08T07:41:04;101965.72;;;12.81;100.00
27294;BME280;14785;52.556;13.430;2023-05-08T07:43:30;101972.75;;;12.91;100.00
27294;BME280;14785;52.556;13.430;2023-05-08T07:45:56;101969.38;;;12.99;100.00
27294;BME280;14785;52.556;13.430;2023-05-08T07:48:22;101971.09;;;13.00;100.00
27294;BME280;14785;52.556;13.430;2023-05-08T07:50:50;101978.66;;;12.95;100.00
27294;BME280;14785;52.556;13.430;2023-05-08T07:53:16;101980.66;;;13.12;100.00
27294;BME280;14785;52.556;13.430;2023-05-08T07:55:41;101972.75;;;13.48;100.00
27294;BME280;14785;52.556;13.430;2023-05-08T07:58:07;101968.09;;;13.51;100.00
27294;BME280;14785;52.556;13.430;2023-05-08T08:00:32;101961.94;;;12.93;100.00
27294;BME280;14785;52.556;13.430;2023-05-08T08:02:58;101967.00;;;12.96;100.00
27294;BME280;14785;52.556;13.430;2023-05-08T08:05:23;101958.47;;;13.02;100.00
27294;BME280;14785;52.556;13.430;2023-05-08T08:07:49;101955.34;;;13.16;100.00
27294;BME280;14785;52.556;13.430;2023-05-08T08:10:14;101953.09;;;13.21;100.00
27294;BME280;14785;52.556;13.430;2023-05-08T08:12:39;101956.75;;;13.29;100.00
27294;BME280;14785;52.556;13.430;2023-05-08T08:15:05;101952.84;;;13.80;100.00
27294;BME280;14785;52.556;13.430;2023-05-08T08:17:31;101953.31;;;14.02;100.00
27294;BME280;14785;52.556;13.430;2023-05-08T08:19:56;101951.88;;;13.71;100.00
27294;BME280;14785;52.556;13.430;2023-05-08T08:22:22;101949.25;;;13.98;100.00
27294;BME280;14785;52.556;13.430;2023-05-08T08:24:48;101950.56;;;14.21;100.00
27294;BME280;14785;52.556;13.430;2023-05-08T08:27:13;101952.69;;;13.81;100.00
27294;BME280;14785;52.556;13.430;2023-05-08T08:29:39;101943.31;;;14.04;100.00
27294;BME280;14785;52.556;13.430;2023-05-08T08:32:04;101950.16;;;14.26;100.00
27294;BME280;14785;52.556;13.430;2023-05-08T08:34:32;101950.00;;;14.27;100.00
27294;BME280;14785;52.556;13.430;2023-05-08T08:36:57;101941.59;;;14.13;100.00
27294;BME280;14785;52.556;13.430;2023-05-08T08:39:23;101940.38;;;13.98;100.00
27294;BME280;14785;52.556;13.430;2023-05-08T08:41:48;101942.22;;;13.97;100.00
27294;BME280;14785;52.556;13.430;2023-05-08T08:44:14;101947.75;;;14.13;100.00
27294;BME280;14785;52.556;13.430;2023-05-08T08:46:46;101938.69;;;14.33;98.23
27294;BME280;14785;52.556;13.430;2023-05-08T08:49:17;101944.03;;;14.33;94.46
27294;BME280;14785;52.556;13.430;2023-05-08T08:51:49;101952.66;;;14.54;91.74
27294;BME280;14785;52.556;13.430;2023-05-08T08:54:19;101947.53;;;14.61;90.28
27294;BME280;14785;52.556;13.430;2023-05-08T08:56:47;101944.16;;;14.59;92.02
27294;BME280;14785;52.556;13.430;2023-05-08T08:59:14;101946.41;;;14.63;91.23
27294;BME280;14785;52.556;13.430;2023-05-08T09:01:43;101949.78;;;15.00;90.36
27294;BME280;14785;52.556;13.430;2023-05-08T09:04:10;101946.47;;;15.06;88.56
27294;BME280;14785;52.556;13.430;2023-05-08T09:06:36;101937.50;;;15.15;89.31
27294;BME280;14785;52.556;13.430;2023-05-08T09:09:02;101941.13;;;15.06;89.50
27294;BME280;14785;52.556;13.430;2023-05-08T09:11:28;101944.84;;;15.13;88.94
27294;BME280;14785;52.556;13.430;2023-05-08T09:13:54;101942.78;;;15.25;86.28
27294;BME280;14785;52.556;13.430;2023-05-08T09:16:20;101933.19;;;15.58;87.99
27294;BME280;14785;52.556;13.430;2023-05-08T09:18:46;101936.66;;;15.50;88.21
27294;BME280;14785;52.556;13.430;2023-05-08T09:21:12;101937.75;;;15.40;88.36
27294;BME280;14785;52.556;13.430;2023-05-08T09:31:39;101929.09;;;16.13;83.13
27294;BME280;14785;52.556;13.430;2023-05-08T09:34:09;101933.44;;;16.06;82.75
27294;BME280;14785;52.556;13.430;2023-05-08T09:36:34;101931.00;;;16.20;85.04
27294;BME280;14785;52.556;13.430;2023-05-08T09:39:01;101922.34;;;16.42;81.96
27294;BME280;14785;52.556;13.430;2023-05-08T09:41:27;101928.88;;;16.40;83.70
27294;BME280;14785;52.556;13.430;2023-05-08T09:44:04;101930.97;;;16.62;84.01
27294;BME280;14785;52.556;13.430;2023-05-08T09:46:30;101936.94;;;16.40;81.93
27294;BME280;14785;52.556;13.430;2023-05-08T09:48:58;101929.94;;;16.47;81.40
27294;BME280;14785;52.556;13.430;2023-05-08T09:51:28;101926.19;;;16.40;79.95
27294;BME280;14785;52.556;13.430;2023-05-08T09:53:55;101923.28;;;16.67;78.23
27294;BME280;14785;52.556;13.430;2023-05-08T09:56:38;101919.91;;;16.81;78.17
27294;BME280;14785;52.556;13.430;2023-05-08T09:59:04;101915.25;;;16.91;79.69
27294;BME280;14785;52.556;13.430;2023-05-08T10:01:45;101920.28;;;17.10;77.56
27294;BME280;14785;52.556;13.430;2023-05-08T10:04:13;101925.81;;;17.00;78.09
27294;BME280;14785;52.556;13.430;2023-05-08T10:06:38;101921.63;;;17.14;77.56
27294;BME280;14785;52.556;13.430;2023-05-08T10:09:11;101920.47;;;17.17;78.03
27294;BME280;14785;52.556;13.430;2023-05-08T10:11:47;101921.13;;;17.51;77.96
27294;BME280;14785;52.556;13.430;2023-05-08T10:14:16;101925.31;;;17.53;76.87
27294;BME280;14785;52.556;13.430;2023-05-08T10:16:43;101930.41;;;18.03;73.58
27294;BME280;14785;52.556;13.430;2023-05-08T10:19:16;101924.22;;;17.94;73.07
27294;BME280;14785;52.556;13.430;2023-05-08T10:22:00;101928.66;;;18.26;74.09
27294;BME280;14785;52.556;13.430;2023-05-08T10:24:32;101926.03;;;18.93;68.33
27294;BME280;14785;52.556;13.430;2023-05-08T10:27:07;101922.72;;;19.14;66.12
27294;BME280;14785;52.556;13.430;2023-05-08T10:29:54;101908.72;;;19.11;65.84
27294;BME280;14785;52.556;13.430;2023-05-08T10:32:21;101912.19;;;19.56;65.36
27294;BME280;14785;52.556;13.430;2023-05-08T10:34:58;101903.34;;;19.48;61.58
27294;BME280;14785;52.556;13.430;2023-05-08T10:37:23;101908.38;;;19.36;62.88
27294;BME280;14785;52.556;13.430;2023-05-08T10:39:50;101898.81;;;19.77;61.72
27294;BME280;14785;52.556;13.430;2023-05-08T10:42:18;101902.22;;;20.44;63.12
27294;BME280;14785;52.556;13.430;2023-05-08T10:44:44;101900.41;;;20.15;57.11
27294;BME280;14785;52.556;13.430;2023-05-08T10:47:14;101892.88;;;21.03;56.00
27294;BME280;14785;52.556;13.430;2023-05-08T10:55:27;101892.41;;;20.57;55.23
27294;BME280;14785;52.556;13.430;2023-05-08T10:58:48;101890.91;;;20.76;51.10
27294;BME280;14785;52.556;13.430;2023-05-08T11:05:45;101893.16;;;21.97;49.74
27294;BME280;14785;52.556;13.430;2023-05-08T11:08:18;101886.69;;;22.45;47.41
27294;BME280;14785;52.556;13.430;2023-05-08T11:10:50;101896.81;;;22.91;44.58
27294;BME280;14785;52.556;13.430;2023-05-08T11:13:17;101899.75;;;22.96;47.37
27294;BME280;14785;52.556;13.430;2023-05-08T11:15:48;101886.69;;;22.39;45.25
27294;BME280;14785;52.556;13.430;2023-05-08T11:18:15;101879.28;;;22.87;44.92
27294;BME280;14785;52.556;13.430;2023-05-08T11:20:56;101881.78;;;22.82;46.47
27294;BME280;14785;52.556;13.430;2023-05-08T11:23:35;101893.09;;;23.05;45.33
27294;BME280;14785;52.556;13.430;2023-05-08T11:26:01;101879.28;;;22.87;45.52
27294;BME280;14785;52.556;13.430;2023-05-08T11:28:30;101877.22;;;23.15;45.40
27294;BME280;14785;52.556;13.430;2023-05-08T11:31:01;101875.41;;;22.42;45.56
27294;BME280;14785;52.556;13.430;2023-05-08T11:33:34;101875.78;;;23.32;45.40
27294;BME280;14785;52.556;13.430;2023-05-08T11:38:35;101871.97;;;23.72;43.17
27294;BME280;14785;52.556;13.430;2023-05-08T11:41:21;101874.28;;;24.25;45.25
27294;BME280;14785;52.556;13.430;2023-05-08T11:46:21;101875.31;;;22.83;42.40
27294;BME280;14785;52.556;13.430;2023-05-08T11:48:47;101868.19;;;22.56;41.88
27294;BME280;14785;52.556;13.430;2023-05-08T11:51:16;101845.44;;;23.61;42.07
27294;BME280;14785;52.556;13.430;2023-05-08T11:53:42;101869.44;;;23.64;41.06
27294;BME280;14785;52.556;13.430;2023-05-08T11:56:08;101857.34;;;24.92;41.93
27294;BME280;14785;52.556;13.430;2023-05-08T11:58:33;101864.16;;;23.95;38.44
27294;BME280;14785;52.556;13.430;2023-05-08T12:00:59;101858.63;;;24.59;39.11
27294;BME280;14785;52.556;13.430;2023-05-08T12:03:24;101850.47;;;24.59;39.82
27294;BME280;14785;52.556;13.430;2023-05-08T12:05:50;101850.41;;;25.21;39.24
27294;BME280;14785;52.556;13.430;2023-05-08T12:08:16;101848.94;;;24.38;36.69
27294;BME280;14785;52.556;13.430;2023-05-08T12:15:50;101857.59;;;26.00;33.59
27294;BME280;14785;52.556;13.430;2023-05-08T12:18:20;101850.69;;;24.88;35.22
27294;BME280;14785;52.556;13.430;2023-05-08T12:20:55;101854.63;;;24.68;34.09
27294;BME280;14785;52.556;13.430;2023-05-08T12:23:22;101843.06;;;24.41;33.57
27294;BME280;14785;52.556;13.430;2023-05-08T12:25:52;101858.50;;;24.47;34.04
27294;BME280;14785;52.556;13.430;2023-05-08T12:28:18;101847.59;;;25.09;35.78
27294;BME280;14785;52.556;13.430;2023-05-08T12:30:44;101849.84;;;25.79;36.53
27294;BME280;14785;52.556;13.430;2023-05-08T12:33:13;101847.53;;;26.01;39.29
27294;BME280;14785;52.556;13.430;2023-05-08T12:35:39;101846.84;;;26.05;35.44
27294;BME280;14785;52.556;13.430;2023-05-08T12:38:06;101837.81;;;27.51;33.56
27294;BME280;14785;52.556;13.430;2023-05-08T12:40:40;101836.06;;;27.57;30.89
27294;BME280;14785;52.556;13.430;2023-05-08T12:43:09;101830.69;;;25.25;33.14
27294;BME280;14785;52.556;13.430;2023-05-08T12:45:38;101834.16;;;24.52;33.67
27294;BME280;14785;52.556;13.430;2023-05-08T12:48:06;101831.06;;;25.04;35.52
27294;BME280;14785;52.556;13.430;2023-05-08T12:50:37;101830.34;;;24.60;34.44
27294;BME280;14785;52.556;13.430;2023-05-08T12:53:03;101830.13;;;26.13;34.42
27294;BME280;14785;52.556;13.430;2023-05-08T12:55:31;101830.53;;;26.17;34.25
27294;BME280;14785;52.556;13.430;2023-05-08T12:58:04;101831.03;;;25.71;31.19
27294;BME280;14785;52.556;13.430;2023-05-08T13:00:39;101828.31;;;26.07;34.87
27294;BME280;14785;52.556;13.430;2023-05-08T13:03:06;101819.69;;;26.70;31.73
27294;BME280;14785;52.556;13.430;2023-05-08T13:05:34;101822.44;;;26.70;31.41
27294;BME280;14785;52.556;13.430;2023-05-08T13:08:04;101822.66;;;26.39;32.01
27294;BME280;14785;52.556;13.430;2023-05-08T13:13:12;101820.53;;;26.11;33.86
27294;BME280;14785;52.556;13.430;2023-05-08T13:15:38;101809.06;;;26.50;32.73
27294;BME280;14785;52.556;13.430;2023-05-08T13:18:03;101806.38;;;26.32;35.11
27294;BME280;14785;52.556;13.430;2023-05-08T13:20:29;101801.09;;;27.59;35.00
27294;BME280;14785;52.556;13.430;2023-05-08T13:22:54;101797.66;;;28.31;33.68
27294;BME280;14785;52.556;13.430;2023-05-08T13:25:20;101794.50;;;28.23;32.09
27294;BME280;14785;52.556;13.430;2023-05-08T13:27:45;101790.69;;;28.68;31.08
27294;BME280;14785;52.556;13.430;2023-05-08T13:30:11;101790.56;;;27.28;31.39
27294;BME280;14785;52.556;13.430;2023-05-08T13:32:37;101795.47;;;26.32;29.83
27294;BME280;14785;52.556;13.430;2023-05-08T13:35:03;101782.44;;;27.67;29.96